Time;durP1;ratioP1;P1;durP2;ratioP2;P2;SDS_P1;SDS_P2;PMS_P1;PMS_P2;Temp;Humidity;BMP_temperature;BMP_pressure;BME280_temperature;BME280_humidity;BME280_pressure;Samples;Min_cycle;Max_cycle;Signal;HPM_P1;HPM_P2
2023/10/02 00:01:52;;;;;;;12.57;8.03;;;;;;;16.20;82.21;101459.06;5033013;28;20218;-76
2023/10/02 00:04:24;;;;;;;14.93;8.77;;;;;;;16.20;82.64;101453.66;5035762;28;20317;-76
2023/10/02 00:07:05;;;;;;;14.10;8.40;;;;;;;16.21;82.71;101459.91;5036597;28;20203;-76
2023/10/02 00:09:36;;;;;;;12.63;8.40;;;;;;;16.21;82.64;101449.09;5036520;28;20214;-76
2023/10/02 00:12:11;;;;;;;14.43;8.73;;;;;;;16.21;82.16;101455.34;5036518;28;20282;-76
2023/10/02 00:14:41;;;;;;;14.60;7.80;;;;;;;16.23;82.52;101455.19;5036416;28;20222;-76
2023/10/02 00:17:15;;;;;;;13.00;7.43;;;;;;;16.22;82.03;101451.63;5036432;28;20206;-76
2023/10/02 00:19:46;;;;;;;15.90;8.63;;;;;;;16.23;81.98;101449.78;5036410;28;20619;-76
2023/10/02 00:25:00;;;;;;;13.07;7.97;;;;;;;16.25;82.75;101450.44;5035552;28;20312;-76
2023/10/02 00:27:29;;;;;;;12.30;7.83;;;;;;;16.26;82.04;101445.88;5036510;28;20213;-76
2023/10/02 00:29:59;;;;;;;14.33;8.50;;;;;;;16.26;82.44;101451.28;5036152;28;20301;-76
2023/10/02 00:32:31;;;;;;;14.77;9.20;;;;;;;16.23;82.53;101447.88;5035842;28;20187;-76
2023/10/02 00:35:00;;;;;;;15.93;8.73;;;;;;;16.24;81.96;101448.72;5036042;28;20223;-76
2023/10/02 00:37:43;;;;;;;17.33;9.53;;;;;;;16.26;81.88;101449.41;5035742;28;20210;-76
2023/10/02 00:40:20;;;;;;;13.57;8.20;;;;;;;16.27;82.35;101451.06;5036222;28;20191;-76
2023/10/02 00:42:54;;;;;;;14.30;8.93;;;;;;;16.24;82.23;101448.72;5035963;28;20198;-76
2023/10/02 00:45:23;;;;;;;15.23;9.50;;;;;;;16.26;82.11;101448.56;5035803;28;20234;-76
2023/10/02 00:47:53;;;;;;;15.10;9.73;;;;;;;16.24;81.59;101448.72;5035824;28;20233;-76
2023/10/02 00:50:22;;;;;;;16.20;9.33;;;;;;;16.27;82.61;101448.38;5035859;28;20277;-76
2023/10/02 00:52:58;;;;;;;13.93;8.67;;;;;;;16.28;81.73;101444.66;5035675;28;20559;-76
2023/10/02 00:55:32;;;;;;;15.60;8.97;;;;;;;16.29;82.14;101449.06;5035375;28;20536;-76
2023/10/02 00:58:02;;;;;;;14.47;9.30;;;;;;;16.28;82.13;101452.75;5035380;28;20560;-76
2023/10/02 01:00:35;;;;;;;15.93;9.27;;;;;;;16.27;81.61;101448.38;5035344;28;20198;-77
2023/10/02 01:03:08;;;;;;;15.47;9.70;;;;;;;16.27;81.71;101442.97;5035506;28;20278;-77
2023/10/02 01:05:47;;;;;;;14.70;9.87;;;;;;;16.27;82.22;101450.25;5035739;28;20210;-77
2023/10/02 01:08:42;;;;;;;15.20;9.10;;;;;;;16.28;82.18;101447.34;5035521;28;20195;-77
2023/10/02 01:11:14;;;;;;;14.70;9.43;;;;;;;16.29;82.09;101448.22;5035464;28;20195;-77
2023/10/02 01:13:44;;;;;;;15.03;9.30;;;;;;;16.28;81.84;101441.09;5034939;28;20317;-77
2023/10/02 01:16:17;;;;;;;16.50;9.10;;;;;;;16.28;82.23;101431.16;5035352;28;20203;-77
2023/10/02 01:18:48;;;;;;;15.23;9.07;;;;;;;16.27;82.33;101442.97;5035555;28;20195;-77
2023/10/02 01:21:24;;;;;;;14.87;9.23;;;;;;;16.23;81.38;101441.69;5034975;28;20650;-77
2023/10/02 01:24:08;;;;;;;16.47;9.47;;;;;;;16.24;82.11;101443.34;5034818;28;20296;-77
2023/10/02 01:26:38;;;;;;;16.07;9.27;;;;;;;16.22;81.49;101435.44;5034825;28;20708;-77
2023/10/02 01:29:07;;;;;;;14.30;8.67;;;;;;;16.24;81.63;101440.63;5035050;28;20580;-77
2023/10/02 01:31:42;;;;;;;16.00;9.30;;;;;;;16.22;81.51;101434.56;5034999;28;20203;-77
2023/10/02 01:34:33;;;;;;;16.67;9.27;;;;;;;16.22;81.55;101440.81;5034914;28;20254;-77
2023/10/02 01:37:21;;;;;;;14.17;8.97;;;;;;;16.23;81.22;101436.28;5034654;28;20199;-77
2023/10/02 01:40:24;;;;;;;17.47;8.80;;;;;;;16.21;81.39;101435.59;5034582;28;20249;-77
2023/10/02 01:42:40;;;;;;;13.63;9.60;;;;;;;16.20;80.80;101433.91;5034404;28;20234;-77
2023/10/02 01:45:10;;;;;;;14.67;9.30;;;;;;;16.19;80.97;101440.34;5034612;28;20245;-76
2023/10/02 01:47:41;;;;;;;15.70;9.43;;;;;;;16.19;81.00;101434.94;5034689;28;20290;-76
2023/10/02 01:50:10;;;;;;;13.83;9.03;;;;;;;16.17;81.36;101431.56;5034427;28;20202;-76
2023/10/02 01:52:41;;;;;;;15.97;9.80;;;;;;;16.14;81.15;101434.63;5034598;28;20203;-76
2023/10/02 01:55:29;;;;;;;15.23;10.03;;;;;;;16.14;81.67;101431.91;5034582;28;20223;-76
2023/10/02 01:58:16;;;;;;;16.53;9.83;;;;;;;16.12;81.97;101431.28;5034571;28;20199;-76
2023/10/02 02:00:46;;;;;;;15.97;9.43;;;;;;;16.12;81.08;101428.56;5034493;28;20199;-76
2023/10/02 02:03:17;;;;;;;16.70;9.57;;;;;;;16.12;81.05;101428.56;5034002;28;20217;-76
2023/10/02 02:05:47;;;;;;;14.47;9.63;;;;;;;16.09;81.35;101429.78;5034587;28;20253;-76
2023/10/02 02:08:25;;;;;;;14.60;9.20;;;;;;;16.10;81.04;101430.59;5034310;28;20305;-76
2023/10/02 02:11:14;;;;;;;14.43;9.53;;;;;;;16.09;81.09;101431.63;5034312;28;20270;-76
2023/10/02 02:13:45;;;;;;;16.57;9.50;;;;;;;16.08;80.66;101433.50;5034187;28;20222;-76
2023/10/02 02:16:15;;;;;;;14.73;9.80;;;;;;;16.07;80.96;101425.56;5033820;28;20249;-76
2023/10/02 02:18:48;;;;;;;14.80;9.53;;;;;;;16.06;80.50;101434.69;5034112;28;20333;-76
2023/10/02 02:21:18;;;;;;;15.10;8.80;;;;;;;16.04;81.33;101431.31;5033817;28;20226;-76
2023/10/02 02:23:48;;;;;;;14.87;9.93;;;;;;;16.01;81.57;101432.53;5033568;28;20235;-76
2023/10/02 02:26:22;;;;;;;16.77;10.47;;;;;;;16.00;80.71;101430.00;5033161;28;20231;-76
2023/10/02 02:28:52;;;;;;;13.27;9.47;;;;;;;15.99;81.12;101428.34;5033971;28;20284;-76
2023/10/02 02:31:32;;;;;;;14.23;9.80;;;;;;;15.99;81.17;101417.53;5033612;28;20703;-76
2023/10/02 02:34:14;;;;;;;16.57;10.60;;;;;;;15.97;81.68;101419.56;5033846;28;20233;-76
2023/10/02 02:36:46;;;;;;;16.20;9.80;;;;;;;15.96;81.15;101420.59;5034365;28;20555;-76
2023/10/02 02:39:21;;;;;;;16.90;9.23;;;;;;;15.94;81.05;101420.75;5033779;28;20195;-76
2023/10/02 02:42:08;;;;;;;15.67;10.13;;;;;;;15.94;81.09;101419.91;5033758;28;20197;-76
2023/10/02 02:44:43;;;;;;;16.33;9.97;;;;;;;15.94;80.97;101417.22;5033552;28;20230;-76
2023/10/02 02:47:14;;;;;;;19.17;10.60;;;;;;;15.94;80.87;101419.91;5033676;28;20274;-76
2023/10/02 02:49:51;;;;;;;16.97;10.07;;;;;;;15.93;80.99;101419.06;5033665;28;20188;-76
2023/10/02 02:52:24;;;;;;;15.00;9.50;;;;;;;15.92;81.15;101422.81;5033847;28;20191;-76
2023/10/02 02:54:59;;;;;;;16.30;9.80;;;;;;;15.92;81.45;101421.97;5033527;28;20594;-76
2023/10/02 02:57:30;;;;;;;16.33;10.10;;;;;;;15.91;80.46;101421.13;5033546;28;20190;-76
2023/10/02 03:02:52;;;;;;;14.30;10.37;;;;;;;15.90;81.17;101415.88;5033467;28;20218;-76
2023/10/02 03:05:22;;;;;;;16.13;9.80;;;;;;;15.88;80.40;101407.13;5033270;28;20317;-76
2023/10/02 03:07:54;;;;;;;16.97;10.23;;;;;;;15.88;81.17;101409.81;5033376;28;20209;-76
2023/10/02 03:10:25;;;;;;;15.73;9.87;;;;;;;15.84;81.46;101414.75;5033480;28;20191;-76
2023/10/02 03:12:55;;;;;;;15.23;9.93;;;;;;;15.84;80.84;101413.91;5033664;28;20257;-76
2023/10/02 03:15:45;;;;;;;17.40;9.17;;;;;;;15.81;81.48;101414.25;5033303;28;20226;-76
2023/10/02 03:18:30;;;;;;;16.93;10.33;;;;;;;15.78;81.53;101420.00;5033400;28;20191;-76
2023/10/02 03:21:00;;;;;;;14.27;9.97;;;;;;;15.75;81.69;101414.97;5033349;28;20191;-76
2023/10/02 03:23:30;;;;;;;14.43;9.83;;;;;;;15.71;81.88;101406.38;5033022;28;20230;-76
2023/10/02 03:25:59;;;;;;;14.77;9.27;;;;;;;15.70;81.25;101402.84;5033500;28;20580;-76
2023/10/02 03:28:32;;;;;;;15.90;9.93;;;;;;;15.71;82.18;101407.25;5033490;28;20297;-76
2023/10/02 03:31:01;;;;;;;17.27;10.37;;;;;;;15.70;81.60;101408.25;5033466;28;20286;-76
2023/10/02 03:33:31;;;;;;;16.03;10.13;;;;;;;15.68;81.59;101404.88;5033367;28;20222;-77
2023/10/02 03:36:08;;;;;;;13.13;9.20;;;;;;;15.69;82.19;101394.91;5033166;28;20256;-77
2023/10/02 03:38:42;;;;;;;16.90;9.83;;;;;;;15.65;81.96;101393.59;5036474;28;20651;-77
2023/10/02 03:41:13;;;;;;;14.83;9.80;;;;;;;15.65;81.60;101399.00;5037095;28;20234;-77
2023/10/02 03:43:44;;;;;;;16.60;10.20;;;;;;;15.61;81.77;101393.13;5037009;28;20305;-77
2023/10/02 03:46:16;;;;;;;15.73;9.87;;;;;;;15.60;82.67;101391.44;5036973;28;20221;-76
2023/10/02 03:48:51;;;;;;;15.87;10.00;;;;;;;15.58;82.53;101389.94;5037024;28;20198;-76
2023/10/02 03:51:36;;;;;;;16.67;11.00;;;;;;;15.56;82.11;101395.50;5036613;28;20222;-76
2023/10/02 03:54:18;;;;;;;17.10;10.37;;;;;;;15.55;82.77;101396.50;5036840;28;20241;-76
2023/10/02 03:56:48;;;;;;;14.97;9.60;;;;;;;15.56;81.95;101395.50;5036869;28;20233;-76
2023/10/02 03:59:21;;;;;;;15.67;9.77;;;;;;;15.57;82.63;101391.78;5036732;28;20221;-76
2023/10/02 04:01:51;;;;;;;17.27;10.13;;;;;;;15.55;82.20;101383.00;5036737;28;20191;-76
2023/10/02 04:04:21;;;;;;;16.77;9.63;;;;;;;15.53;82.28;101384.22;5036554;28;20227;-76
2023/10/02 04:06:53;;;;;;;16.90;9.83;;;;;;;15.54;82.97;101384.06;5036544;28;20280;-76
2023/10/02 04:09:24;;;;;;;16.97;10.17;;;;;;;15.52;82.41;101386.06;5036599;28;20567;-76
2023/10/02 04:11:54;;;;;;;14.57;9.60;;;;;;;15.49;83.42;101383.72;5036495;28;20211;-76
2023/10/02 04:14:32;;;;;;;16.90;9.57;;;;;;;15.51;82.48;101387.09;5036425;28;20257;-76
2023/10/02 04:17:13;;;;;;;16.70;9.13;;;;;;;15.50;83.17;101385.41;5037519;28;20198;-76
2023/10/02 04:19:48;;;;;;;16.10;9.83;;;;;;;15.50;82.02;101388.13;5036145;28;20195;-76
2023/10/02 04:22:22;;;;;;;16.20;10.07;;;;;;;15.50;82.56;101385.41;5036409;28;20205;-76
2023/10/02 04:24:51;;;;;;;15.93;9.97;;;;;;;15.47;82.59;101390.28;5035808;28;20273;-76
2023/10/02 04:27:25;;;;;;;16.57;10.23;;;;;;;15.47;82.67;101385.75;5035842;28;20719;-76
2023/10/02 04:30:23;;;;;;;16.63;9.17;;;;;;;15.45;82.44;101384.22;5036211;28;20198;-76
2023/10/02 04:32:51;;;;;;;18.37;10.43;;;;;;;15.46;83.10;101383.19;5036140;28;20215;-76
2023/10/02 04:38:14;;;;;;;15.17;9.87;;;;;;;15.42;82.37;101382.72;5036127;28;20195;-76
2023/10/02 04:40:49;;;;;;;17.03;10.47;;;;;;;15.41;82.95;101386.41;5036015;28;20202;-76
2023/10/02 04:43:23;;;;;;;17.10;10.53;;;;;;;15.39;82.54;101385.75;5035904;28;20195;-76
2023/10/02 04:46:01;;;;;;;16.53;9.50;;;;;;;15.39;82.59;101388.47;5035878;28;20245;-76
2023/10/02 04:48:38;;;;;;;16.67;9.90;;;;;;;15.39;82.84;101388.47;5035066;28;20191;-76
2023/10/02 04:51:09;;;;;;;13.43;9.47;;;;;;;15.39;82.01;101387.63;5035560;28;20222;-76
2023/10/02 04:53:39;;;;;;;16.33;9.40;;;;;;;15.37;82.62;101385.13;5035701;28;20317;-76
2023/10/02 04:56:07;;;;;;;15.03;10.00;;;;;;;15.37;83.33;101387.81;5035784;28;20191;-76
2023/10/02 04:58:47;;;;;;;15.37;9.90;;;;;;;15.37;83.23;101379.72;5035671;28;20213;-76
2023/10/02 05:01:28;;;;;;;16.03;10.20;;;;;;;15.35;82.47;101379.03;5035677;28;20197;-76
2023/10/02 05:04:02;;;;;;;14.13;10.40;;;;;;;15.33;83.09;101378.38;5035201;28;20668;-76
2023/10/02 05:09:38;;;;;;;17.20;9.90;;;;;;;15.27;83.00;101381.78;5033196;28;20217;-76
2023/10/02 05:12:06;;;;;;;18.10;10.70;;;;;;;15.26;83.62;101388.19;5035447;28;20214;-76
2023/10/02 05:14:48;;;;;;;16.93;10.27;;;;;;;15.25;83.72;101381.09;5035280;28;20250;-76
2023/10/02 05:17:17;;;;;;;17.43;10.60;;;;;;;15.23;82.96;101384.00;5035391;28;20277;-76
2023/10/02 05:22:36;;;;;;;17.33;10.40;;;;;;;15.17;84.00;101389.25;5025267;28;20206;-76
2023/10/02 05:25:07;;;;;;;18.27;10.87;;;;;;;15.16;84.05;101382.16;5034778;28;20234;-76
2023/10/02 05:27:36;;;;;;;17.47;10.60;;;;;;;15.13;84.05;101377.13;5035044;28;20226;-76
2023/10/02 05:30:12;;;;;;;18.67;10.60;;;;;;;15.12;84.05;101378.13;5035057;28;20290;-76
2023/10/02 05:32:43;;;;;;;18.97;11.30;;;;;;;15.12;84.73;101378.97;5034725;28;20202;-76
2023/10/02 05:35:19;;;;;;;16.40;10.57;;;;;;;15.14;84.22;101378.78;5034940;28;20222;-76
2023/10/02 05:37:51;;;;;;;16.90;10.97;;;;;;;15.13;85.02;101375.28;5034974;28;20191;-76
2023/10/02 05:40:38;;;;;;;16.57;10.87;;;;;;;15.13;84.59;101375.28;5034848;28;20305;-76
2023/10/02 05:43:17;;;;;;;18.57;10.80;;;;;;;15.11;85.26;101379.97;5034849;28;20195;-76
2023/10/02 05:45:50;;;;;;;15.63;10.50;;;;;;;15.13;84.99;101377.13;5034724;28;20206;-76
2023/10/02 05:48:29;;;;;;;14.97;10.57;;;;;;;15.14;85.36;101379.63;5035017;28;20203;-76
2023/10/02 05:50:59;;;;;;;18.00;10.57;;;;;;;15.16;85.10;101377.63;5034717;28;20198;-76
2023/10/02 05:53:34;;;;;;;18.63;10.73;;;;;;;15.18;84.69;101393.59;5034605;28;20227;-76
2023/10/02 05:56:12;;;;;;;16.23;10.47;;;;;;;15.19;84.91;101387.19;5034323;28;20201;-76
2023/10/02 05:58:43;;;;;;;20.03;11.07;;;;;;;15.20;85.48;101391.59;5034544;28;20193;-76
2023/10/02 06:01:23;;;;;;;20.37;11.77;;;;;;;15.23;84.99;101393.94;5033456;28;20238;-76
2023/10/02 06:03:57;;;;;;;15.83;11.03;;;;;;;15.25;85.28;101394.59;5033731;28;20280;-76
2023/10/02 06:06:35;;;;;;;17.13;11.30;;;;;;;15.28;84.55;101391.53;5034340;28;20221;-76
2023/10/02 06:09:13;;;;;;;17.77;11.17;;;;;;;15.31;85.19;101388.50;5034066;28;20637;-76
2023/10/02 06:12:05;;;;;;;19.50;10.83;;;;;;;15.35;84.84;101391.69;5034058;28;20707;-75
2023/10/02 06:14:38;;;;;;;18.43;11.00;;;;;;;15.38;84.37;101385.94;5034187;28;20227;-75
2023/10/02 06:17:11;;;;;;;17.53;10.57;;;;;;;15.41;84.35;101383.72;5033903;28;20559;-75
2023/10/02 06:19:43;;;;;;;18.37;10.73;;;;;;;15.44;84.32;101390.66;5034140;28;20198;-75
2023/10/02 06:22:17;;;;;;;18.07;10.00;;;;;;;15.45;83.55;101389.59;5033732;28;20676;-75
2023/10/02 06:24:45;;;;;;;20.33;11.47;;;;;;;15.50;84.59;101395.38;5033638;28;20735;-75
2023/10/02 06:27:16;;;;;;;16.20;10.73;;;;;;;15.53;83.96;101401.25;5033919;28;20222;-75
2023/10/02 06:29:47;;;;;;;20.63;11.00;;;;;;;15.54;84.09;101394.84;5033660;28;20578;-75
2023/10/02 06:32:19;;;;;;;16.10;10.73;;;;;;;15.56;84.60;101389.25;5033966;28;20198;-75
2023/10/02 06:34:53;;;;;;;17.63;10.37;;;;;;;15.59;84.70;101399.69;5033884;28;20324;-76
2023/10/02 06:37:28;;;;;;;18.43;11.53;;;;;;;15.60;84.38;101396.81;5033921;28;20183;-76
2023/10/02 06:40:04;;;;;;;19.73;10.50;;;;;;;15.62;84.21;101399.34;5033980;28;20286;-76
2023/10/02 06:42:33;;;;;;;18.70;11.37;;;;;;;15.65;84.27;101399.81;5033601;28;20194;-76
2023/10/02 06:45:02;;;;;;;19.33;10.80;;;;;;;15.67;84.61;101396.97;5033608;28;20747;-77
2023/10/02 06:47:34;;;;;;;19.20;10.67;;;;;;;15.70;84.84;101399.31;5033659;28;20226;-76
2023/10/02 06:50:23;;;;;;;18.27;11.33;;;;;;;15.76;84.35;101405.84;5033762;28;20195;-76
2023/10/02 06:52:53;;;;;;;17.70;11.30;;;;;;;15.80;83.82;101412.56;5033708;28;20192;-76
2023/10/02 06:55:26;;;;;;;17.67;11.03;;;;;;;15.90;83.93;101413.19;5033791;28;20258;-76
2023/10/02 06:57:56;;;;;;;22.30;12.07;;;;;;;15.94;83.95;101409.09;5034132;28;20206;-76
2023/10/02 07:00:36;;;;;;;19.50;12.17;;;;;;;15.95;84.18;101405.41;5033683;28;20187;-76
2023/10/02 07:03:08;;;;;;;18.63;11.63;;;;;;;15.99;83.79;101409.44;5033181;28;20676;-76
2023/10/02 07:05:39;;;;;;;19.47;11.77;;;;;;;16.08;83.34;101405.63;5033549;28;20198;-76
2023/10/02 07:08:21;;;;;;;19.00;11.40;;;;;;;16.09;83.31;101407.31;5033503;28;20397;-76
2023/10/02 07:10:51;;;;;;;20.07;11.23;;;;;;;16.16;83.10;101405.59;5033522;28;20194;-76
2023/10/02 07:13:20;;;;;;;19.90;11.63;;;;;;;16.17;82.77;101410.78;5032818;28;20211;-76
2023/10/02 07:15:55;;;;;;;17.53;10.73;;;;;;;16.24;82.82;101408.22;5033074;28;20268;-76
2023/10/02 07:18:35;;;;;;;16.37;11.20;;;;;;;16.25;82.93;101415.31;5033404;28;20214;-76
2023/10/02 07:21:07;;;;;;;18.60;10.77;;;;;;;16.29;83.37;101418.47;5033346;28;20201;-76
2023/10/02 07:23:37;;;;;;;20.77;11.93;;;;;;;16.32;82.45;101418.97;5033000;28;20272;-68
2023/10/02 07:26:14;;;;;;;24.73;11.23;;;;;;;16.34;82.27;101427.72;5033304;28;20197;-72
2023/10/02 07:28:50;;;;;;;18.97;11.47;;;;;;;16.36;82.03;101423.00;5033212;28;20214;-72
2023/10/02 07:31:20;;;;;;;19.03;11.33;;;;;;;16.39;83.03;101419.06;5033286;28;20194;-72
2023/10/02 07:33:55;;;;;;;19.83;11.83;;;;;;;16.45;82.01;101416.47;5033125;28;20229;-72
2023/10/02 07:36:26;;;;;;;18.03;11.30;;;;;;;16.51;82.45;101418.44;5033172;28;20190;-72
2023/10/02 07:38:56;;;;;;;19.70;11.77;;;;;;;16.56;81.52;101424.19;5033171;28;20211;-72
2023/10/02 07:41:24;;;;;;;19.40;11.43;;;;;;;16.62;81.88;101431.56;5032791;28;20214;-72
2023/10/02 07:43:55;;;;;;;18.80;11.30;;;;;;;16.66;81.02;101427.47;5032730;28;20226;-72
2023/10/02 07:46:24;;;;;;;19.97;10.83;;;;;;;16.76;81.13;101415.56;5033282;28;20237;-72
2023/10/02 07:48:57;;;;;;;20.10;11.37;;;;;;;16.82;81.04;101418.34;5032444;28;20264;-73
2023/10/02 07:51:35;;;;;;;19.43;10.90;;;;;;;16.84;81.39;101418.19;5032551;28;20236;-73
2023/10/02 07:54:07;;;;;;;19.17;10.40;;;;;;;16.95;80.11;101409.63;5032925;28;20280;-74
2023/10/02 07:56:36;;;;;;;18.03;10.93;;;;;;;17.01;80.48;101404.31;5032673;28;20249;-74
2023/10/02 07:59:07;;;;;;;19.77;11.30;;;;;;;17.10;79.12;101411.28;5032927;28;20282;-73
2023/10/02 08:01:39;;;;;;;17.83;11.17;;;;;;;17.16;79.41;101413.25;5033003;28;20249;-73
2023/10/02 08:04:08;;;;;;;22.50;11.17;;;;;;;17.21;79.30;101410.84;5032602;28;20255;-73
2023/10/02 08:06:38;;;;;;;18.00;11.37;;;;;;;17.33;78.43;101408.47;5032457;28;20289;-73
2023/10/02 08:09:36;;;;;;;19.53;10.87;;;;;;;17.37;78.17;101404.38;5032716;28;20215;-73
2023/10/02 08:12:08;;;;;;;19.97;11.03;;;;;;;17.46;79.23;101405.97;5032910;28;20253;-74
2023/10/02 08:14:41;;;;;;;18.83;10.43;;;;;;;17.48;79.45;101405.75;5032440;28;20231;-74
2023/10/02 08:17:21;;;;;;;17.33;11.10;;;;;;;17.54;78.65;101392.31;5032467;28;20559;-74
2023/10/02 08:19:56;;;;;;;17.73;10.83;;;;;;;17.59;80.09;101392.63;5032592;28;20196;-74
2023/10/02 08:22:35;;;;;;;18.97;10.87;;;;;;;17.77;76.76;101394.06;5032322;28;20610;-74
2023/10/02 08:25:13;;;;;;;18.60;10.43;;;;;;;17.91;76.57;101394.00;5034687;28;20245;-74
2023/10/02 08:27:42;;;;;;;20.33;10.47;;;;;;;17.93;76.50;101396.53;5036124;28;20241;-74
2023/10/02 08:30:27;;;;;;;14.93;10.23;;;;;;;17.98;77.74;101385.97;5036160;28;20279;-74
2023/10/02 08:33:05;;;;;;;17.57;10.57;;;;;;;18.04;76.97;101387.91;5036089;28;20199;-74
2023/10/02 08:35:39;;;;;;;17.97;10.63;;;;;;;18.03;77.05;101388.94;5036156;28;20566;-74
2023/10/02 08:38:21;;;;;;;21.70;11.30;;;;;;;18.06;76.07;101391.25;5036000;28;20206;-74
2023/10/02 08:40:57;;;;;;;18.80;10.63;;;;;;;18.05;76.29;101376.00;5036049;28;20241;-74
2023/10/02 08:43:26;;;;;;;18.50;10.93;;;;;;;18.20;74.93;101387.63;5035573;28;20607;-74
2023/10/02 08:45:55;;;;;;;15.63;10.03;;;;;;;18.26;75.63;101394.97;5035559;28;20639;-74
2023/10/02 08:48:25;;;;;;;16.37;10.43;;;;;;;18.40;74.73;101393.22;5035758;28;20632;-74
2023/10/02 08:50:58;;;;;;;18.20;11.17;;;;;;;18.52;74.46;101394.41;5035767;28;20210;-74
2023/10/02 08:53:28;;;;;;;17.50;10.53;;;;;;;18.63;74.63;101385.75;5035032;28;20241;-74
2023/10/02 08:56:23;;;;;;;18.63;10.60;;;;;;;18.67;73.85;101387.00;5034944;28;20281;-71
2023/10/02 08:59:16;;;;;;;19.93;10.77;;;;;;;18.68;73.49;101383.28;5034909;28;20223;-70
2023/10/02 09:01:41;;;;;;;18.43;10.80;;;;;;;18.66;73.02;101379.94;5035532;28;20207;-70
2023/10/02 09:06:59;;;;;;;17.23;10.40;;;;;;;18.98;71.71;101390.16;5035636;28;20286;-70
2023/10/02 09:09:36;;;;;;;16.67;10.60;;;;;;;19.02;72.38;101390.59;5035123;28;20246;-70
2023/10/02 09:12:14;;;;;;;19.73;10.67;;;;;;;19.14;72.33;101391.72;5035489;28;20187;-70
2023/10/02 09:14:43;;;;;;;17.07;10.30;;;;;;;19.30;72.19;101394.09;5035166;28;20230;-71
2023/10/02 09:17:16;;;;;;;17.47;10.83;;;;;;;19.38;71.51;101391.22;5035342;28;20231;-71
2023/10/02 09:19:51;;;;;;;16.53;10.07;;;;;;;19.44;71.77;101384.16;5035356;28;20219;-70
2023/10/02 09:22:22;;;;;;;18.33;10.43;;;;;;;19.37;72.59;101384.09;5035321;28;20222;-70
2023/10/02 09:25:09;;;;;;;17.80;10.53;;;;;;;19.56;70.85;101377.94;5034810;28;20267;-70
2023/10/02 09:27:54;;;;;;;17.13;10.73;;;;;;;19.78;69.23;101377.81;5035112;28;20598;-70
2023/10/02 09:30:36;;;;;;;16.80;10.50;;;;;;;19.89;68.65;101379.94;5034781;28;20567;-70
2023/10/02 09:33:14;;;;;;;20.10;10.50;;;;;;;20.00;67.49;101377.44;5034635;28;20641;-72
2023/10/02 09:36:00;;;;;;;19.40;10.97;;;;;;;20.02;68.74;101388.09;5034718;28;20202;-71
2023/10/02 09:38:50;;;;;;;20.63;11.13;;;;;;;20.15;68.66;101367.22;5034713;28;20596;-71
2023/10/02 09:41:22;;;;;;;17.30;10.07;;;;;;;20.26;68.12;101354.88;5034961;28;20222;-71
2023/10/02 09:43:52;;;;;;;17.87;10.03;;;;;;;20.43;66.58;101364.34;5034820;28;20233;-71
2023/10/02 09:46:22;;;;;;;17.77;10.93;;;;;;;20.50;66.79;101354.28;5034753;28;20211;-71
2023/10/02 09:49:03;;;;;;;21.87;11.33;;;;;;;20.58;66.77;101343.16;5035275;28;20207;-72
2023/10/02 09:52:09;;;;;;;18.70;11.00;;;;;;;20.68;66.68;101357.22;5034661;28;20191;-71
2023/10/02 09:54:41;;;;;;;17.70;10.40;;;;;;;20.75;66.39;101347.13;5034565;28;20226;-71
2023/10/02 09:57:17;;;;;;;18.07;11.23;;;;;;;20.89;66.06;101355.28;5034312;28;20226;-71
2023/10/02 09:59:49;;;;;;;16.03;9.90;;;;;;;20.98;65.28;101348.53;5034256;28;20227;-71
2023/10/02 10:10:53;;;;;;;20.77;10.37;;;;;;;21.22;64.43;101347.88;5034354;28;20218;-71
2023/10/02 10:13:32;;;;;;;14.73;9.87;;;;;;;21.26;64.41;101349.13;5034124;28;20704;-71
2023/10/02 10:16:38;;;;;;;18.17;10.10;;;;;;;21.33;65.16;101344.50;5033894;28;20656;-73
2023/10/02 10:21:57;;;;;;;17.17;10.53;;;;;;;21.57;64.73;101340.19;5034191;28;20195;-73
2023/10/02 10:24:36;;;;;;;17.43;10.93;;;;;;;21.61;65.01;101339.50;5033867;28;20234;-75
2023/10/02 10:27:04;;;;;;;17.27;11.17;;;;;;;21.69;63.85;101347.44;5034069;28;20197;-68
2023/10/02 10:29:41;;;;;;;16.90;11.07;;;;;;;21.81;62.68;101336.69;5033875;28;20264;-68
2023/10/02 10:32:23;;;;;;;17.23;10.50;;;;;;;21.88;62.93;101336.63;5033688;28;20194;-67
2023/10/02 10:37:46;;;;;;;19.97;11.00;;;;;;;21.91;63.89;101337.06;5033330;28;20566;-67
2023/10/02 10:40:50;;;;;;;16.17;10.63;;;;;;;22.02;63.64;101330.06;5033731;28;20736;-67
2023/10/02 10:43:20;;;;;;;15.50;10.13;;;;;;;22.14;61.96;101336.47;5033056;28;20560;-67
2023/10/02 10:45:54;;;;;;;17.23;10.57;;;;;;;22.26;62.13;101323.78;5033296;28;20249;-75
2023/10/02 10:48:23;;;;;;;17.70;9.73;;;;;;;22.31;62.48;101332.13;5033209;28;20197;-75
2023/10/02 10:51:00;;;;;;;16.57;10.33;;;;;;;22.42;60.68;101331.41;5033694;28;20260;-75
2023/10/02 10:53:29;;;;;;;16.93;10.47;;;;;;;22.46;61.07;101329.91;5034159;28;20222;-75
2023/10/02 10:56:03;;;;;;;16.13;9.87;;;;;;;22.55;61.10;101333.19;5033622;28;20207;-74
2023/10/02 10:58:33;;;;;;;16.87;10.70;;;;;;;22.61;61.01;101330.38;5033463;28;20190;-74
2023/10/02 11:01:07;;;;;;;19.30;10.60;;;;;;;22.69;60.87;101335.59;5033818;28;20211;-74
2023/10/02 11:03:38;;;;;;;17.27;10.47;;;;;;;22.74;60.47;101332.16;5033461;28;20265;-74
2023/10/02 11:06:09;;;;;;;19.90;10.43;;;;;;;22.84;59.71;101332.50;5033515;28;20194;-74
2023/10/02 11:08:39;;;;;;;16.00;9.30;;;;;;;22.94;59.78;101331.97;5033350;28;20210;-74
2023/10/02 11:11:21;;;;;;;16.27;10.17;;;;;;;22.95;61.85;101326.28;5033451;28;20211;-75
2023/10/02 11:14:00;;;;;;;15.17;10.07;;;;;;;23.08;61.66;101328.03;5033278;28;20237;-75
2023/10/02 11:16:31;;;;;;;17.43;9.80;;;;;;;23.22;58.17;101324.06;5032483;28;20195;-75
2023/10/02 11:19:10;;;;;;;15.27;10.07;;;;;;;23.30;58.23;101326.47;5032983;28;20660;-75
2023/10/02 11:21:46;;;;;;;17.33;10.03;;;;;;;23.38;58.16;101334.38;5033382;28;20214;-75
2023/10/02 11:24:21;;;;;;;16.20;10.13;;;;;;;23.27;59.52;101316.00;5032928;28;20585;-76
2023/10/02 11:26:53;;;;;;;16.43;10.33;;;;;;;23.18;59.57;101315.50;5033007;28;20743;-75
2023/10/02 11:29:22;;;;;;;15.43;9.67;;;;;;;23.13;58.81;101314.50;5032952;28;20221;-75
2023/10/02 11:34:44;;;;;;;15.37;9.27;;;;;;;23.08;58.91;101308.91;5032919;28;20241;-75
2023/10/02 11:37:13;;;;;;;15.80;9.40;;;;;;;23.13;59.04;101317.25;5033204;28;20659;-75
2023/10/02 11:39:42;;;;;;;18.53;10.57;;;;;;;23.10;58.91;101314.97;5033144;28;20230;-75
2023/10/02 11:42:11;;;;;;;18.00;10.97;;;;;;;23.06;59.53;101311.84;5033221;28;20293;-75
2023/10/02 11:44:40;;;;;;;15.23;9.27;;;;;;;23.04;59.60;101316.72;5032756;28;20318;-75
2023/10/02 11:47:10;;;;;;;14.10;9.63;;;;;;;23.00;59.34;101311.94;5033217;28;20211;-75
2023/10/02 11:49:40;;;;;;;14.40;9.33;;;;;;;23.01;59.38;101305.44;5032998;28;20239;-75
2023/10/02 11:52:08;;;;;;;17.03;10.73;;;;;;;23.07;59.63;101308.06;5032966;28;20210;-75
2023/10/02 11:54:39;;;;;;;17.30;10.37;;;;;;;23.12;59.71;101308.22;5032871;28;20253;-75
2023/10/02 11:57:09;;;;;;;15.13;9.37;;;;;;;23.18;60.20;101293.66;5032761;28;20721;-75
2023/10/02 11:59:41;;;;;;;15.20;9.70;;;;;;;23.20;58.65;101293.41;5036418;28;20226;-74
2023/10/02 12:02:16;;;;;;;16.17;10.37;;;;;;;23.20;58.66;101298.88;5036812;28;20269;-74
2023/10/02 12:04:45;;;;;;;15.20;10.00;;;;;;;23.18;57.98;101298.28;5036599;28;20234;-74
2023/10/02 12:07:16;;;;;;;14.53;9.50;;;;;;;23.20;58.76;101301.59;5036639;28;20301;-74
2023/10/02 12:09:47;;;;;;;15.27;9.73;;;;;;;23.22;58.99;101291.28;5036529;28;20231;-74
2023/10/02 12:12:17;;;;;;;15.37;9.70;;;;;;;23.26;57.71;101297.94;5036840;28;20195;-74
2023/10/02 12:14:45;;;;;;;15.90;9.10;;;;;;;23.24;58.08;101289.16;5036425;28;20262;-74
2023/10/02 12:17:15;;;;;;;17.83;10.10;;;;;;;23.26;59.11;101295.22;5036161;28;20528;-74
2023/10/02 12:19:44;;;;;;;14.23;9.37;;;;;;;23.28;59.55;101284.91;5036144;28;20298;-74